Time;durP1;ratioP1;P1;durP2;ratioP2;P2;SDS_P1;SDS_P2;PMS_P1;PMS_P2;Temp;Humidity;BMP_temperature;BMP_pressure;BME280_temperature;BME280_humidity;BME280_pressure;Samples;Min_cycle;Max_cycle;Signal;HPM_P1;HPM_P2
2022/05/13 00:01:45;;;;;;;5.37;3.52;;;;;;;14.31;51.52;100448.62;1949959;90;28737;-64
2022/05/13 00:04:47;;;;;;;7.50;3.92;;;;;;;14.28;51.50;100445.62;1949879;91;31953;-65
2022/05/13 00:07:52;;;;;;;7.58;3.85;;;;;;;14.25;51.75;100446.70;1950277;91;33595;-66
2022/05/13 00:10:56;;;;;;;5.90;3.55;;;;;;;14.22;51.83;100441.49;1950152;91;29389;-66
2022/05/13 00:13:58;;;;;;;7.58;3.55;;;;;;;14.20;51.86;100442.06;1950118;90;28279;-65
2022/05/13 00:17:00;;;;;;;5.62;3.12;;;;;;;14.16;51.92;100436.47;1950033;91;29950;-65
2022/05/13 00:20:05;;;;;;;8.03;4.00;;;;;;;14.13;52.11;100434.00;1950276;91;31812;-65
2022/05/13 00:23:07;;;;;;;7.90;3.83;;;;;;;14.07;52.10;100432.53;1950273;91;32836;-65
2022/05/13 00:26:09;;;;;;;9.58;3.47;;;;;;;14.00;52.15;100417.73;1950167;91;29268;-65
2022/05/13 00:29:11;;;;;;;4.50;3.37;;;;;;;13.93;52.28;100419.94;1950325;91;27684;-66
2022/05/13 00:32:13;;;;;;;13.78;4.60;;;;;;;13.85;52.40;100431.64;1950286;91;29257;-65
2022/05/13 00:35:17;;;;;;;4.72;3.27;;;;;;;13.77;52.63;100429.42;1949022;90;32288;-66
2022/05/13 00:38:19;;;;;;;8.08;3.42;;;;;;;13.69;52.69;100426.34;1944142;91;33180;-65
2022/05/13 00:41:21;;;;;;;8.50;4.05;;;;;;;13.59;52.68;100421.11;1944430;91;28732;-65
2022/05/13 00:44:22;;;;;;;9.50;3.02;;;;;;;13.49;52.72;100420.34;1944503;91;28207;-65
2022/05/13 00:47:25;;;;;;;7.72;3.77;;;;;;;13.41;53.05;100415.88;1944115;91;29703;-65
2022/05/13 00:50:31;;;;;;;6.22;3.67;;;;;;;13.34;53.09;100427.45;1944304;91;32033;-65
2022/05/13 00:53:33;;;;;;;5.85;3.33;;;;;;;13.25;53.27;100423.98;1944405;91;33593;-65
2022/05/13 00:56:37;;;;;;;7.08;3.75;;;;;;;13.16;53.49;100417.31;1944141;91;30299;-65
2022/05/13 00:59:42;;;;;;;8.30;3.70;;;;;;;13.08;53.57;100419.57;1944079;91;27725;-65
2022/05/13 01:02:48;;;;;;;10.30;3.87;;;;;;;13.00;53.76;100417.82;1944313;91;29681;-64
2022/05/13 01:05:54;;;;;;;7.12;3.95;;;;;;;12.96;53.89;100409.53;1944277;91;31032;-65
2022/05/13 01:08:56;;;;;;;6.42;3.33;;;;;;;12.91;54.13;100416.03;1944403;91;32429;-65
2022/05/13 01:12:01;;;;;;;9.25;3.95;;;;;;;12.86;54.34;100408.73;1944121;91;30673;-65
2022/05/13 01:15:09;;;;;;;8.23;3.27;;;;;;;12.81;54.44;100404.09;1932041;91;27785;-66
2022/05/13 01:18:12;;;;;;;6.83;3.20;;;;;;;12.77;54.59;100406.55;1911782;93;28582;-66
2022/05/13 01:21:22;;;;;;;5.25;3.35;;;;;;;12.74;55.03;100417.52;1926021;92;31224;-64
2022/05/13 01:24:25;;;;;;;9.15;3.40;;;;;;;12.70;55.47;100414.11;1925510;92;33016;-66
2022/05/13 01:27:28;;;;;;;6.87;3.10;;;;;;;12.69;55.57;100410.17;1926117;92;29349;-65
2022/05/13 01:30:31;;;;;;;7.55;3.42;;;;;;;12.67;55.70;100412.08;1925880;92;27711;-66
2022/05/13 01:33:35;;;;;;;8.68;3.02;;;;;;;12.68;56.08;100413.81;1926028;92;29538;-66
2022/05/13 01:36:39;;;;;;;6.67;3.33;;;;;;;12.68;56.41;100407.09;1925306;92;30495;-66
2022/05/13 01:39:42;;;;;;;6.77;3.40;;;;;;;12.69;56.43;100404.31;1925327;92;33688;-66
2022/05/13 01:42:45;;;;;;;4.70;3.12;;;;;;;12.69;56.48;100401.62;1924682;92;30590;-66
2022/05/13 01:45:47;;;;;;;10.08;3.33;;;;;;;12.69;56.70;100400.77;1925005;92;27780;-64
2022/05/13 01:48:51;;;;;;;7.80;3.67;;;;;;;12.67;56.80;100398.64;1924831;92;29423;-65
2022/05/13 01:51:53;;;;;;;6.35;3.30;;;;;;;12.65;57.05;100393.83;1925167;92;31173;-65
2022/05/13 01:54:55;;;;;;;9.63;3.67;;;;;;;12.60;57.11;100388.23;1924523;92;33827;-65
2022/05/13 01:57:57;;;;;;;5.97;3.35;;;;;;;12.57;57.12;100384.39;1924970;92;30146;-65
2022/05/13 02:01:00;;;;;;;6.37;3.15;;;;;;;12.54;57.26;100379.65;1924718;92;27995;-66
2022/05/13 02:04:02;;;;;;;4.17;3.05;;;;;;;12.50;57.33;100381.65;1924812;92;30103;-64
2022/05/13 02:07:05;;;;;;;5.80;3.37;;;;;;;12.48;57.39;100384.05;1924665;92;32416;-66
2022/05/13 02:10:08;;;;;;;9.38;4.05;;;;;;;12.41;57.56;100382.19;1924554;92;33852;-66
2022/05/13 02:13:13;;;;;;;6.72;3.55;;;;;;;12.36;57.74;100386.45;1924883;92;29575;-65
2022/05/13 02:16:16;;;;;;;11.05;3.60;;;;;;;12.30;57.63;100390.84;1925047;92;27828;-66
2022/05/13 02:19:18;;;;;;;6.35;3.12;;;;;;;12.25;57.67;100387.53;1924917;92;28662;-65
2022/05/13 02:22:20;;;;;;;7.92;3.45;;;;;;;12.18;57.93;100381.62;1924650;92;32299;-66
2022/05/13 02:25:23;;;;;;;3.83;3.15;;;;;;;12.12;58.06;100378.81;1924815;92;34286;-65
2022/05/13 02:28:25;;;;;;;18.67;4.78;;;;;;;12.04;58.20;100382.38;1924678;92;30273;-66
2022/05/13 02:31:28;;;;;;;6.83;3.52;;;;;;;11.99;58.28;100391.18;1924822;92;27723;-66
2022/05/13 02:34:30;;;;;;;6.50;3.98;;;;;;;11.94;58.60;100390.52;1924910;92;29487;-65
2022/05/13 02:37:32;;;;;;;6.60;3.95;;;;;;;11.88;58.50;100384.12;1924584;92;32241;-66
2022/05/13 02:43:55;;;;;;;4.78;3.52;;;;;;;11.79;59.03;100384.14;1924946;92;29455;-65
2022/05/13 02:46:58;;;;;;;14.47;4.17;;;;;;;11.74;59.39;100383.05;1925037;92;27577;-67
2022/05/13 02:50:18;;;;;;;7.92;3.95;;;;;;;11.68;59.46;100380.23;1924931;92;29882;-66
2022/05/13 02:53:21;;;;;;;5.78;3.45;;;;;;;11.64;59.62;100379.98;1924478;92;32478;-65
2022/05/13 02:56:25;;;;;;;8.33;3.85;;;;;;;11.62;59.82;100377.86;1924702;92;33759;-66
2022/05/13 02:59:27;;;;;;;6.83;3.92;;;;;;;11.59;60.23;100376.67;1924867;92;29351;-66
2022/05/13 03:02:29;;;;;;;6.95;3.87;;;;;;;11.55;60.18;100368.41;1924552;92;28240;-65
2022/05/13 03:05:34;;;;;;;8.63;4.20;;;;;;;11.55;60.51;100375.13;1950450;90;29388;-66
2022/05/13 03:08:37;;;;;;;14.87;4.92;;;;;;;11.53;60.57;100375.67;1950776;91;30674;-65
2022/05/13 03:11:39;;;;;;;11.50;4.20;;;;;;;11.53;60.73;100372.98;1950419;91;33574;-65
2022/05/13 03:14:42;;;;;;;11.80;4.03;;;;;;;11.52;60.75;100376.62;1950459;91;30624;-66
2022/05/13 03:17:44;;;;;;;9.33;4.28;;;;;;;11.53;61.02;100372.98;1950790;90;28256;-65
2022/05/13 03:20:47;;;;;;;9.60;4.33;;;;;;;11.55;60.88;100367.07;1950942;91;29388;-66
2022/05/13 03:23:49;;;;;;;5.67;3.37;;;;;;;11.58;61.07;100366.03;1950629;91;31056;-65
2022/05/13 03:26:51;;;;;;;10.35;3.95;;;;;;;11.62;61.18;100367.61;1950631;90;33817;-66
2022/05/13 03:29:53;;;;;;;10.88;4.30;;;;;;;11.67;61.24;100361.50;1950949;90;30037;-65
2022/05/13 03:32:55;;;;;;;6.35;3.85;;;;;;;11.71;61.37;100364.42;1950845;91;27742;-65
2022/05/13 03:35:57;;;;;;;10.48;4.45;;;;;;;11.77;61.42;100361.88;1950529;90;29392;-66
2022/05/13 03:38:59;;;;;;;9.70;5.37;;;;;;;11.81;61.36;100369.71;1978542;89;32032;-65
2022/05/13 03:42:03;;;;;;;7.22;4.53;;;;;;;11.88;61.49;100363.53;1979191;89;34197;-66
2022/05/13 03:45:07;;;;;;;8.53;4.83;;;;;;;11.96;61.46;100365.80;1978690;90;29401;-65
2022/05/13 03:48:10;;;;;;;8.37;5.10;;;;;;;12.04;61.65;100362.73;1979338;89;27869;-65
2022/05/13 03:51:13;;;;;;;10.72;5.20;;;;;;;12.14;61.68;100365.28;1978937;89;29522;-65
2022/05/13 03:54:15;;;;;;;7.40;4.65;;;;;;;12.25;61.82;100366.89;1978830;89;31894;-65
2022/05/13 03:57:17;;;;;;;5.28;4.42;;;;;;;12.35;61.87;100369.08;1978666;89;32605;-65
2022/05/13 04:00:19;;;;;;;10.75;4.78;;;;;;;12.46;61.82;100372.02;1978609;89;30210;-65
2022/05/13 04:03:21;;;;;;;7.47;4.92;;;;;;;12.58;61.86;100367.78;1979000;90;27570;-65
2022/05/13 04:09:44;;;;;;;12.33;5.53;;;;;;;12.83;61.99;100371.27;1978747;89;32221;-66
2022/05/13 04:16:08;;;;;;;13.08;4.75;;;;;;;13.13;62.04;100375.80;1978611;90;30556;-66
2022/05/13 04:19:11;;;;;;;8.08;5.00;;;;;;;13.31;61.98;100371.16;1978938;89;27714;-66
2022/05/13 04:22:14;;;;;;;9.35;4.67;;;;;;;13.48;61.78;100370.16;1978805;89;28744;-66
2022/05/13 04:25:17;;;;;;;8.65;5.05;;;;;;;13.68;61.79;100374.81;1978617;89;31733;-67
2022/05/13 04:28:20;;;;;;;7.20;5.35;;;;;;;13.87;61.60;100367.79;1978442;90;33756;-67
2022/05/13 04:31:26;;;;;;;9.50;5.67;;;;;;;14.05;61.48;100368.95;1978781;89;29802;-67
2022/05/13 04:34:29;;;;;;;10.13;5.15;;;;;;;14.22;61.36;100373.28;1978821;89;27726;-67
2022/05/13 04:37:31;;;;;;;13.98;5.80;;;;;;;14.37;61.28;100373.64;1978470;89;28742;-67
2022/05/13 04:40:34;;;;;;;12.18;5.35;;;;;;;14.56;61.20;100371.95;1978596;90;32353;-67
2022/05/13 04:43:36;;;;;;;11.33;6.17;;;;;;;14.83;61.04;100375.66;1978525;89;34195;-67
2022/05/13 04:46:40;;;;;;;9.75;5.12;;;;;;;15.19;60.87;100372.31;1978585;89;30413;-67
2022/05/13 04:49:43;;;;;;;13.95;5.97;;;;;;;15.57;60.42;100377.89;1944402;90;27730;-67
2022/05/13 04:52:53;;;;;;;16.42;5.75;;;;;;;15.89;59.85;100378.84;1944036;91;29758;-67
2022/05/13 04:56:01;;;;;;;10.68;5.58;;;;;;;16.13;59.15;100377.58;1943957;91;31189;-66
2022/05/13 04:59:08;;;;;;;12.63;5.22;;;;;;;16.33;58.83;100384.74;1944026;90;33126;-67
2022/05/13 05:02:21;;;;;;;10.48;4.95;;;;;;;16.55;58.55;100375.92;1944282;90;27655;-66
2022/05/13 05:05:31;;;;;;;22.13;6.30;;;;;;;16.81;58.06;100380.75;1944621;91;27715;-66
2022/05/13 05:08:45;;;;;;;20.70;7.03;;;;;;;17.11;57.47;100374.53;1944456;91;28711;-67
2022/05/13 05:11:49;;;;;;;23.55;6.80;;;;;;;17.72;57.23;100365.33;1921289;91;27791;-66
2022/05/13 05:14:51;;;;;;;17.35;6.60;;;;;;;18.10;56.12;100358.75;1944104;91;33786;-67
2022/05/13 05:17:54;;;;;;;27.50;6.92;;;;;;;18.29;55.29;100359.46;1944416;91;29341;-68
2022/05/13 05:21:03;;;;;;;26.95;6.72;;;;;;;18.45;55.01;100371.27;1944592;91;27710;-67
2022/05/13 05:24:08;;;;;;;12.15;6.20;;;;;;;18.56;54.39;100360.89;1944078;91;29498;-67
2022/05/13 05:27:11;;;;;;;16.65;6.70;;;;;;;18.92;54.26;100356.61;1944104;90;33176;-66
2022/05/13 05:30:15;;;;;;;20.12;6.30;;;;;;;19.30;53.69;100360.65;1944389;91;33718;-66
2022/05/13 05:33:21;;;;;;;19.53;5.87;;;;;;;19.54;52.49;100367.18;1944570;91;29407;-65
2022/05/13 05:36:23;;;;;;;18.85;6.20;;;;;;;19.70;52.27;100363.13;1944438;90;27740;-67
2022/05/13 05:39:25;;;;;;;17.40;6.92;;;;;;;20.29;51.93;100361.58;1949335;91;29326;-67
2022/05/13 05:42:27;;;;;;;18.20;6.92;;;;;;;20.90;51.10;100360.23;1949917;90;32310;-67
2022/05/13 05:45:28;;;;;;;13.60;6.83;;;;;;;21.30;50.02;100360.61;1950121;91;33333;-67
2022/05/13 05:48:31;;;;;;;23.07;8.23;;;;;;;21.71;49.38;100360.42;1950294;91;29723;-67
2022/05/13 05:51:32;;;;;;;13.78;8.33;;;;;;;22.37;48.79;100358.59;1950210;91;28296;-68
2022/05/13 05:58:06;;;;;;;19.40;6.60;;;;;;;23.07;47.66;100347.56;1950131;90;31773;-68
2022/05/13 06:01:07;;;;;;;17.35;7.22;;;;;;;23.41;46.75;100350.12;1950240;89;32983;-68
2022/05/13 06:04:09;;;;;;;15.20;6.45;;;;;;;23.41;46.23;100353.70;1950445;90;29487;-68
2022/05/13 06:07:14;;;;;;;15.68;6.72;;;;;;;23.52;45.84;100345.75;1950438;90;27766;-68
2022/05/13 06:10:17;;;;;;;9.45;5.80;;;;;;;23.99;45.41;100344.55;1950347;91;28730;-66
2022/05/13 06:13:19;;;;;;;19.82;6.85;;;;;;;24.32;44.57;100343.81;1950047;91;31243;-66
2022/05/13 06:16:23;;;;;;;9.48;6.28;;;;;;;24.25;44.11;100353.20;1950254;91;33140;-66
2022/05/13 06:19:25;;;;;;;12.37;5.37;;;;;;;24.85;43.73;100348.11;1950530;90;30209;-65
2022/05/13 06:22:28;;;;;;;12.10;5.70;;;;;;;25.78;42.23;100345.20;1950314;91;27958;-66
2022/05/13 06:25:30;;;;;;;18.92;6.58;;;;;;;25.74;41.24;100351.54;1950305;90;28825;-66
2022/05/13 06:28:32;;;;;;;25.40;11.20;;;;;;;25.78;41.27;100353.44;1950379;90;32204;-66
2022/05/13 06:31:36;;;;;;;21.33;9.88;;;;;;;25.85;40.35;100354.44;1950063;90;33742;-67
2022/05/13 06:34:39;;;;;;;27.22;6.42;;;;;;;25.74;40.24;100357.56;1950525;90;29357;-67
2022/05/13 06:37:41;;;;;;;14.35;5.28;;;;;;;25.73;39.73;100353.09;1950003;91;27755;-67
2022/05/13 06:40:43;;;;;;;11.35;4.50;;;;;;;25.61;39.20;100356.22;1950015;90;29926;-65
2022/05/13 06:43:47;;;;;;;11.25;4.80;;;;;;;25.47;38.20;100354.18;1950208;90;31540;-67
2022/05/13 06:46:50;;;;;;;10.37;4.83;;;;;;;25.32;38.41;100352.06;1950447;90;33027;-67
2022/05/13 06:49:52;;;;;;;10.00;4.25;;;;;;;25.83;38.42;100352.91;1950281;91;29500;-67
2022/05/13 06:52:55;;;;;;;14.10;4.47;;;;;;;26.33;37.99;100347.62;1950418;91;27730;-67
2022/05/13 06:55:58;;;;;;;12.07;4.50;;;;;;;26.82;37.17;100339.64;1950226;90;28669;-68
2022/05/13 06:59:08;;;;;;;11.50;4.10;;;;;;;27.82;37.21;100337.42;1950436;90;31200;-68
2022/05/13 07:02:17;;;;;;;9.63;3.08;;;;;;;28.81;36.06;100338.96;1950304;91;33141;-69
2022/05/13 07:05:27;;;;;;;7.95;2.65;;;;;;;29.68;35.15;100335.65;1950080;90;30242;-69
2022/05/13 07:08:34;;;;;;;7.05;3.27;;;;;;;30.61;34.13;100328.94;1949937;90;27693;-70
2022/05/13 07:11:39;;;;;;;11.78;3.77;;;;;;;31.05;32.44;100322.54;1950092;90;28710;-70
2022/05/13 07:14:41;;;;;;;9.43;3.15;;;;;;;31.57;31.37;100324.70;1950140;90;31093;-69
2022/05/13 07:17:43;;;;;;;6.67;3.20;;;;;;;31.95;30.74;100321.23;1950199;91;33812;-69
2022/05/13 07:20:45;;;;;;;18.17;4.15;;;;;;;32.58;30.79;100321.14;1950269;90;29338;-69
2022/05/13 07:23:48;;;;;;;10.23;2.98;;;;;;;33.05;29.84;100313.07;1950348;90;27637;-69
2022/05/13 07:26:50;;;;;;;16.95;3.27;;;;;;;33.24;29.03;100312.59;1950471;90;28660;-69
2022/05/13 07:29:52;;;;;;;10.18;3.17;;;;;;;33.00;28.46;100313.75;1950250;90;31033;-69
2022/05/13 07:32:54;;;;;;;9.63;2.35;;;;;;;32.72;28.09;100308.02;1950194;90;32469;-68
2022/05/13 07:35:56;;;;;;;7.30;2.52;;;;;;;32.87;27.23;100308.27;1950244;91;29332;-69
2022/05/13 07:42:19;;;;;;;11.03;3.35;;;;;;;32.95;26.47;100308.53;1950724;91;28759;-69
2022/05/13 07:45:21;;;;;;;7.37;3.08;;;;;;;32.98;25.99;100302.54;1950775;90;31053;-68
2022/05/13 07:48:23;;;;;;;10.82;3.17;;;;;;;33.24;25.08;100302.88;1950822;91;33016;-68
2022/05/13 07:51:26;;;;;;;15.90;3.40;;;;;;;33.02;25.21;100302.41;1950769;91;29506;-69
2022/05/13 07:54:28;;;;;;;6.73;2.60;;;;;;;32.99;25.08;100297.30;1951017;91;27691;-65
2022/05/13 07:57:30;;;;;;;6.33;3.40;;;;;;;33.29;24.63;100299.41;1950422;91;30037;-68
2022/05/13 08:00:33;;;;;;;7.40;3.35;;;;;;;33.53;23.71;100294.10;1950796;91;32256;-68
2022/05/13 08:03:34;;;;;;;8.50;2.72;;;;;;;33.66;23.63;100290.34;1950981;90;33313;-69
2022/05/13 08:06:36;;;;;;;4.75;1.72;;;;;;;33.34;23.52;100286.53;1950812;90;29491;-67
2022/05/13 08:09:38;;;;;;;2.30;1.42;;;;;;;33.22;23.34;100286.14;1950970;91;27666;-68
2022/05/13 08:12:43;;;;;;;4.97;1.55;;;;;;;33.20;22.82;100291.06;1950678;90;28715;-69
2022/05/13 08:15:46;;;;;;;4.53;1.75;;;;;;;33.40;22.83;100284.83;1950969;89;31065;-67
2022/05/13 08:18:49;;;;;;;3.27;1.40;;;;;;;33.62;22.48;100277.44;1950699;91;33433;-68
2022/05/13 08:21:50;;;;;;;4.47;2.00;;;;;;;33.82;22.51;100268.03;1894644;94;30169;-68
2022/05/13 08:24:52;;;;;;;3.33;1.55;;;;;;;33.96;21.93;100265.98;1950611;91;27699;-68
2022/05/13 08:27:54;;;;;;;4.58;1.32;;;;;;;34.03;21.95;100270.38;1950792;90;29436;-68
2022/05/13 08:30:56;;;;;;;4.55;1.80;;;;;;;34.02;21.83;100265.04;1950766;90;31050;-66
2022/05/13 08:33:59;;;;;;;5.87;1.67;;;;;;;33.99;21.70;100266.36;1950813;91;33873;-67
2022/05/13 08:37:01;;;;;;;4.80;1.32;;;;;;;33.79;21.56;100255.46;1950791;91;29427;-67
2022/05/13 08:40:05;;;;;;;9.88;1.72;;;;;;;33.79;21.29;100252.69;1889239;93;28235;-67
2022/05/13 08:43:14;;;;;;;9.43;1.77;;;;;;;33.72;21.36;100249.98;1911671;93;28717;-68
2022/05/13 08:46:30;;;;;;;2.87;1.35;;;;;;;33.66;21.47;100237.56;1908093;93;31061;-70
2022/05/13 08:49:58;;;;;;;5.33;1.52;;;;;;;33.64;21.18;100234.99;1942877;91;32988;-69
2022/05/13 08:53:30;;;;;;;4.85;1.45;;;;;;;33.56;21.33;100232.54;1942677;90;30270;-67
2022/05/13 08:56:32;;;;;;;6.60;1.40;;;;;;;33.62;21.41;100233.84;1942663;90;27754;-68
2022/05/13 08:59:39;;;;;;;8.90;2.27;;;;;;;33.32;21.49;100235.09;1942401;90;29530;-68
2022/05/13 09:02:52;;;;;;;17.40;2.55;;;;;;;33.24;21.56;100231.23;1942364;89;32286;-68
2022/05/13 09:06:09;;;;;;;11.57;2.52;;;;;;;33.26;21.06;100224.91;1906724;93;32987;-69
2022/05/13 09:09:12;;;;;;;16.17;2.30;;;;;;;33.15;21.38;100216.23;1942905;90;29578;-67
2022/05/13 09:12:31;;;;;;;9.80;1.92;;;;;;;33.16;22.38;100215.72;1942827;91;27781;-68
2022/05/13 09:15:44;;;;;;;9.35;2.30;;;;;;;33.39;21.17;100212.83;1942881;91;28738;-69
2022/05/13 09:18:57;;;;;;;8.70;2.30;;;;;;;33.31;21.14;100200.93;1907792;93;31990;-69
2022/05/13 09:21:59;;;;;;;7.20;2.10;;;;;;;33.28;21.15;100211.10;1942666;90;33889;-68
2022/05/13 09:25:00;;;;;;;3.22;1.62;;;;;;;33.12;20.88;100212.53;1942324;91;29939;-69
2022/05/13 09:28:12;;;;;;;8.18;2.08;;;;;;;32.93;21.01;100206.64;1942636;90;27781;-68
2022/05/13 09:31:21;;;;;;;2.65;1.70;;;;;;;32.55;20.91;100201.45;1942916;91;29087;-68
2022/05/13 09:34:32;;;;;;;4.08;1.85;;;;;;;32.27;20.68;100198.55;1908512;93;31893;-68
2022/05/13 09:37:44;;;;;;;4.95;1.60;;;;;;;32.01;21.34;100193.45;1943021;91;32989;-67
2022/05/13 09:41:07;;;;;;;3.80;1.67;;;;;;;31.90;21.24;100184.42;1967487;88;30115;-68
2022/05/13 09:44:24;;;;;;;2.83;1.52;;;;;;;31.81;21.53;100190.74;1974175;90;27758;-68
2022/05/13 09:47:30;;;;;;;6.67;1.50;;;;;;;31.68;21.42;100177.79;1970162;90;29572;-69
2022/05/13 09:50:37;;;;;;;3.25;1.50;;;;;;;31.59;21.66;100178.57;1973959;90;31117;-68
2022/05/13 09:53:40;;;;;;;4.45;1.80;;;;;;;31.36;21.64;100173.50;1949982;91;34177;-67
2022/05/13 09:56:48;;;;;;;6.65;1.65;;;;;;;31.04;21.45;100171.42;1950031;90;29927;-67
2022/05/13 10:00:15;;;;;;;7.40;1.80;;;;;;;30.76;21.98;100161.96;1950380;91;27766;-66
2022/05/13 10:03:21;;;;;;;3.58;1.60;;;;;;;30.55;22.24;100156.12;1950251;90;29396;-67
2022/05/13 10:06:26;;;;;;;3.55;1.50;;;;;;;30.21;22.29;100145.52;1950332;91;31049;-67
2022/05/13 10:16:23;;;;;;;4.70;1.67;;;;;;;29.69;23.06;100143.20;1891129;93;28342;-67
2022/05/13 10:19:42;;;;;;;2.80;1.55;;;;;;;29.71;23.33;100136.41;1890844;94;29439;-68
2022/05/13 10:23:18;;;;;;;4.17;1.47;;;;;;;29.68;23.16;100135.98;1890420;94;32380;-66
2022/05/13 10:26:25;;;;;;;3.98;1.47;;;;;;;29.79;23.72;100131.23;1890365;94;34473;-66
2022/05/13 10:29:46;;;;;;;4.22;1.67;;;;;;;29.98;23.62;100117.72;1890678;94;29349;-67
2022/05/13 10:33:05;;;;;;;3.50;1.67;;;;;;;30.07;23.50;100112.34;1890741;94;27821;-67
2022/05/13 10:36:33;;;;;;;4.75;1.40;;;;;;;30.07;23.47;100107.33;1890406;94;29573;-66
2022/05/13 10:39:51;;;;;;;5.85;1.70;;;;;;;30.11;23.85;100094.30;1890473;94;32376;-65
2022/05/13 10:42:58;;;;;;;2.22;1.27;;;;;;;30.22;24.01;100086.42;1887781;92;33047;-64
2022/05/13 10:46:05;;;;;;;3.98;1.40;;;;;;;30.20;24.13;100088.55;1890603;92;29359;-65
2022/05/13 10:49:07;;;;;;;10.90;2.27;;;;;;;30.16;24.12;100082.60;1891353;91;27806;-65
2022/05/13 10:52:23;;;;;;;3.60;1.82;;;;;;;30.18;24.09;100086.01;1950001;90;29403;-66
2022/05/13 10:56:00;;;;;;;4.92;1.75;;;;;;;30.07;23.59;100088.86;1950334;90;31070;-65
2022/05/13 10:59:22;;;;;;;4.40;1.45;;;;;;;29.91;23.90;100096.12;1949933;90;33493;-66
2022/05/13 11:02:50;;;;;;;6.85;2.02;;;;;;;29.82;24.14;100095.47;1950279;90;30341;-66
2022/05/13 11:06:00;;;;;;;5.72;2.62;;;;;;;29.88;24.36;100095.16;1950400;90;27689;-66
2022/05/13 11:09:39;;;;;;;5.28;1.70;;;;;;;30.01;24.19;100097.46;1950274;91;29706;-66
2022/05/13 11:13:14;;;;;;;5.85;1.40;;;;;;;30.03;24.01;100095.02;1889221;94;32371;-66
2022/05/13 11:16:44;;;;;;;3.55;1.70;;;;;;;29.92;24.17;100093.69;1889193;94;33843;-66
2022/05/13 11:20:18;;;;;;;8.23;1.82;;;;;;;29.91;24.15;100095.58;1889330;94;30574;-65
2022/05/13 11:23:37;;;;;;;4.50;1.37;;;;;;;29.85;24.48;100083.47;1889400;94;27880;-65
2022/05/13 11:26:50;;;;;;;3.70;1.82;;;;;;;29.84;24.35;100087.83;1888996;92;29184;-66
2022/05/13 11:30:00;;;;;;;3.67;1.30;;;;;;;29.79;24.36;100095.33;1889481;93;31044;-65
2022/05/13 11:33:13;;;;;;;5.78;2.02;;;;;;;29.82;24.63;100084.42;1889401;94;34295;-66
2022/05/13 11:36:40;;;;;;;4.80;1.80;;;;;;;29.79;24.83;100082.08;1889558;94;29441;-66
2022/05/13 11:40:22;;;;;;;8.40;2.35;;;;;;;29.79;24.80;100084.83;1888595;92;27794;-64
2022/05/13 11:43:59;;;;;;;3.65;1.45;;;;;;;29.86;24.85;100075.50;1889423;94;28272;-65
2022/05/13 11:47:18;;;;;;;5.15;1.90;;;;;;;29.76;24.77;100068.16;1889371;94;31063;-66
2022/05/13 11:50:20;;;;;;;2.85;1.57;;;;;;;29.80;24.88;100054.78;1916838;92;33094;-66
2022/05/13 11:54:03;;;;;;;8.40;2.12;;;;;;;29.84;24.82;100049.17;1920092;92;29901;-65
2022/05/13 11:57:28;;;;;;;10.95;2.27;;;;;;;29.76;25.09;100048.83;1926491;91;27785;-66
2022/05/13 12:00:38;;;;;;;;;;;;;;;29.65;25.20;100050.29;1952715;91;29481;-65
2022/05/13 12:03:40;;;;;;;4.47;2.15;;;;;;;29.62;25.44;100048.48;1950515;91;32285;-66
2022/05/13 12:06:54;;;;;;;6.17;1.50;;;;;;;29.64;25.61;100046.34;1950067;91;34288;-65
2022/05/13 12:09:57;;;;;;;5.00;1.82;;;;;;;29.70;25.76;100048.28;1950463;90;29860;-65
2022/05/13 12:13:17;;;;;;;5.35;2.12;;;;;;;29.64;25.55;100047.72;1950230;90;27726;-65
2022/05/13 12:16:42;;;;;;;4.58;2.02;;;;;;;29.41;25.36;100036.52;1950408;90;28733;-65
2022/05/13 12:20:11;;;;;;;3.65;2.17;;;;;;;29.21;25.77;100032.25;1948568;91;31049;-66
2022/05/13 12:23:33;;;;;;;5.33;1.80;;;;;;;29.19;25.82;100024.73;1950024;90;34350;-66
2022/05/13 12:27:03;;;;;;;2.83;1.60;;;;;;;29.11;26.21;100021.09;1950138;90;30476;-66
2022/05/13 12:30:34;;;;;;;5.67;2.08;;;;;;;28.92;25.86;100021.32;1950597;90;28177;-64
2022/05/13 12:33:38;;;;;;;2.53;1.43;;;;;;;28.63;26.24;100007.22;1950463;91;29681;-66
2022/05/13 12:40:28;;;;;;;10.40;2.08;;;;;;;28.20;26.58;100009.05;1949972;90;34204;-65
2022/05/13 12:43:56;;;;;;;6.28;2.00;;;;;;;28.07;26.98;100003.37;1951134;91;29874;-65
2022/05/13 12:47:18;;;;;;;5.53;1.82;;;;;;;28.15;27.43;100001.91;1951576;89;27610;-66
2022/05/13 12:50:47;;;;;;;3.85;1.90;;;;;;;28.31;27.27;100008.17;1950898;91;28713;-67
2022/05/13 12:53:55;;;;;;;6.80;1.85;;;;;;;28.44;27.53;100000.00;1951100;91;32265;-67
2022/05/13 12:57:12;;;;;;;4.12;1.90;;;;;;;28.50;27.33;100017.63;1951206;90;32967;-65
2022/05/13 13:00:25;;;;;;;3.45;1.80;;;;;;;28.42;27.36;100023.30;1955738;89;30739;-60
2022/05/13 13:03:28;;;;;;;4.60;1.87;;;;;;;28.32;27.18;100012.09;1953930;89;27779;-59
2022/05/13 13:06:46;;;;;;;8.95;1.90;;;;;;;28.29;27.47;100013.02;1957799;90;28437;-60
2022/05/13 13:09:53;;;;;;;4.95;1.90;;;;;;;28.30;27.70;100006.47;1974646;89;31064;-61
2022/05/13 13:13:06;;;;;;;5.08;1.92;;;;;;;28.33;27.66;100001.94;1974664;89;32905;-63
2022/05/13 13:16:21;;;;;;;2.10;1.47;;;;;;;28.30;27.68;99995.45;1981934;89;29915;-62
2022/05/13 13:19:25;;;;;;;;;;;;;;;28.27;27.70;99996.71;1925717;92;27827;-60
2022/05/13 13:22:33;;;;;;;5.22;1.50;;;;;;;28.25;27.63;99996.56;1923197;91;28737;-62
2022/05/13 13:25:44;;;;;;;6.58;1.75;;;;;;;28.22;27.72;99983.19;1911390;91;31239;-61
2022/05/13 13:28:51;;;;;;;4.90;1.90;;;;;;;28.19;27.78;99981.69;1908861;93;32988;-61
2022/05/13 13:31:55;;;;;;;3.72;1.50;;;;;;;28.27;27.98;99987.06;1909230;91;29509;-64
2022/05/13 13:35:01;;;;;;;6.15;1.77;;;;;;;28.32;27.30;99979.03;1938868;91;27717;-61
2022/05/13 13:38:05;;;;;;;6.75;1.65;;;;;;;28.35;26.95;99990.20;1927901;91;29507;-62
2022/05/13 13:41:22;;;;;;;2.77;1.37;;;;;;;28.26;26.55;99981.23;1933039;90;31052;-65
2022/05/13 13:44:24;;;;;;;2.25;1.57;;;;;;;28.15;26.55;99980.38;1945131;91;33553;-59
2022/05/13 13:47:34;;;;;;;6.28;1.57;;;;;;;28.16;26.34;99976.06;1945646;91;29350;-61
2022/05/13 13:50:39;;;;;;;5.00;1.55;;;;;;;28.19;26.52;99978.94;1945497;91;28078;-61
2022/05/13 13:53:41;;;;;;;;;;;;;;;28.12;26.35;99976.67;1947204;91;29465;-61
2022/05/13 13:56:51;;;;;;;2.52;1.52;;;;;;;28.04;26.09;99985.91;1964110;90;31246;-61
2022/05/13 14:00:11;;;;;;;5.33;1.75;;;;;;;27.96;26.28;99984.14;1973539;90;34222;-60
2022/05/13 14:03:18;;;;;;;3.80;1.77;;;;;;;27.87;26.24;99983.94;1978612;88;30204;-60
2022/05/13 14:06:22;;;;;;;1.98;1.35;;;;;;;27.66;26.03;99980.14;1977776;90;27713;-59
2022/05/13 14:09:41;;;;;;;5.95;1.72;;;;;;;27.44;25.87;99982.00;1978999;90;28932;-61
2022/05/13 14:12:44;;;;;;;7.37;1.52;;;;;;;27.38;26.39;99976.76;1977975;88;31047;-59
2022/05/13 14:15:51;;;;;;;4.92;1.42;;;;;;;27.31;26.26;99979.94;1978956;90;33819;-61
2022/05/13 14:18:57;;;;;;;9.98;2.10;;;;;;;27.29;26.09;99983.44;1979032;89;29340;-60
2022/05/13 14:22:05;;;;;;;3.90;1.60;;;;;;;27.19;26.02;99976.88;1979005;88;27649;-60
2022/05/13 14:25:11;;;;;;;3.58;1.82;;;;;;;27.15;26.08;99970.87;1979191;90;28673;-60
2022/05/13 14:28:16;;;;;;;7.90;1.90;;;;;;;27.09;26.26;99976.30;1978386;89;31058;-60
2022/05/13 14:31:23;;;;;;;5.15;1.90;;;;;;;27.02;26.32;99974.85;1978970;88;32901;-60
2022/05/13 14:34:26;;;;;;;3.52;1.67;;;;;;;26.91;26.35;99973.44;1952135;90;29446;-60
2022/05/13 14:37:37;;;;;;;6.87;1.70;;;;;;;26.73;26.25;99983.94;1953976;90;27888;-61
2022/05/13 14:40:51;;;;;;;4.50;2.17;;;;;;;26.52;26.36;99991.91;1976498;88;29500;-60
2022/05/13 14:43:56;;;;;;;3.30;1.95;;;;;;;26.44;26.51;99981.02;1984965;89;31143;-63
2022/05/13 14:47:29;;;;;;;5.65;2.15;;;;;;;26.39;26.54;99988.43;1986446;89;33708;-68
2022/05/13 14:50:38;;;;;;;2.92;1.90;;;;;;;26.29;26.51;99978.25;1987716;89;29359;-66
2022/05/13 14:53:58;;;;;;;5.65;1.80;;;;;;;26.16;26.47;99982.16;2017230;88;27727;-70
2022/05/13 14:57:04;;;;;;;6.17;1.47;;;;;;;26.08;26.50;99986.64;2016605;88;29402;-71
2022/05/13 15:00:11;;;;;;;4.78;1.75;;;;;;;26.02;26.79;99987.41;2016647;88;31071;-71